Time;durP1;ratioP1;P1;durP2;ratioP2;P2;SDS_P1;SDS_P2;PMS_P1;PMS_P2;Temp;Humidity;BMP_temperature;BMP_pressure;BME280_temperature;BME280_humidity;BME280_pressure;Samples;Min_cycle;Max_cycle;Signal;HPM_P1;HPM_P2
2021/05/17 00:02:28;;;;;;;1.37;0.70;;;11.40;99.90;;;;;;4970786;28;20494;-76
2021/05/17 00:04:55;;;;;;;0.80;0.73;;;11.40;99.90;;;;;;4931360;29;20539;-76
2021/05/17 00:07:22;;;;;;;1.53;1.13;;;11.50;99.90;;;;;;4950595;28;20478;-75
2021/05/17 00:09:49;;;;;;;0.63;0.57;;;11.50;99.90;;;;;;4930936;29;20500;-74
2021/05/17 00:12:16;;;;;;;0.90;0.60;;;11.50;99.90;;;;;;4943224;29;20471;-74
2021/05/17 00:14:43;;;;;;;1.63;0.57;;;11.50;99.90;;;;;;4951694;29;20448;-74
2021/05/17 00:17:10;;;;;;;1.00;0.70;;;11.50;99.90;;;;;;4935542;29;20467;-75
2021/05/17 00:19:37;;;;;;;2.03;0.80;;;11.60;99.90;;;;;;4935576;28;20842;-74
2021/05/17 00:22:05;;;;;;;1.00;0.50;;;11.50;99.90;;;;;;4936226;29;20443;-74
2021/05/17 00:24:32;;;;;;;1.00;0.50;;;11.50;99.90;;;;;;4969058;28;20912;-74
2021/05/17 00:26:59;;;;;;;2.23;0.53;;;11.50;99.90;;;;;;4967676;28;20890;-75
2021/05/17 00:29:27;;;;;;;1.17;0.67;;;11.50;99.90;;;;;;4976000;28;20526;-74
2021/05/17 00:31:55;;;;;;;3.33;0.70;;;11.50;99.90;;;;;;4951899;28;20511;-74
2021/05/17 00:34:22;;;;;;;0.90;0.60;;;11.50;99.90;;;;;;4982085;28;21058;-76
2021/05/17 00:36:50;;;;;;;1.33;0.57;;;11.50;99.90;;;;;;4974336;28;20458;-74
2021/05/17 00:39:17;;;;;;;1.20;0.60;;;11.50;99.90;;;;;;4959899;28;20465;-74
2021/05/17 00:41:45;;;;;;;0.70;0.57;;;11.50;99.90;;;;;;4974135;28;20964;-74
2021/05/17 00:44:13;;;;;;;2.10;0.70;;;11.50;99.90;;;;;;4951825;28;20543;-75
2021/05/17 00:46:41;;;;;;;1.57;0.83;;;11.50;99.90;;;;;;4952123;29;20467;-74
2021/05/17 00:49:08;;;;;;;1.30;0.60;;;11.50;99.90;;;;;;4919382;29;20455;-76
2021/05/17 00:51:36;;;;;;;3.23;0.60;;;11.50;99.90;;;;;;4953040;29;20981;-75
2021/05/17 00:54:05;;;;;;;2.33;1.17;;;11.50;99.90;;;;;;4950654;28;20479;-75
2021/05/17 00:56:32;;;;;;;3.27;0.73;;;11.50;99.90;;;;;;4939183;29;20821;-74
2021/05/17 00:59:00;;;;;;;1.40;0.63;;;11.50;99.90;;;;;;4954300;28;20510;-74
2021/05/17 01:01:28;;;;;;;1.23;0.67;;;11.50;99.90;;;;;;4938782;29;20454;-74
2021/05/17 01:03:59;;;;;;;0.70;0.60;;;11.40;99.90;;;;;;4936767;28;20467;-75
2021/05/17 01:06:34;;;;;;;0.70;0.60;;;11.40;99.90;;;;;;4956287;29;20456;-76
2021/05/17 01:09:07;;;;;;;1.23;0.73;;;11.50;99.90;;;;;;4937217;28;20475;-74
2021/05/17 01:11:42;;;;;;;1.73;0.60;;;11.50;99.90;;;;;;4923352;29;20474;-75
2021/05/17 01:14:11;;;;;;;0.80;0.70;;;11.50;99.90;;;;;;4938357;28;20477;-74
2021/05/17 01:16:41;;;;;;;0.63;0.60;;;11.50;99.90;;;;;;4935620;29;20456;-73
2021/05/17 01:19:48;;;;;;;0.97;0.50;;;11.50;99.90;;;;;;4923507;29;20475;-74
2021/05/17 01:22:23;;;;;;;1.60;0.73;;;11.50;99.90;;;;;;4918465;29;20582;-74
2021/05/17 01:24:50;;;;;;;1.23;0.70;;;11.50;99.90;;;;;;4942200;29;21014;-73
2021/05/17 01:27:18;;;;;;;2.50;0.85;;;11.50;99.90;;;;;;4936722;28;20461;-76
2021/05/17 01:29:45;;;;;;;2.00;0.70;;;11.50;99.90;;;;;;4938355;29;20198;-74
2021/05/17 01:32:13;;;;;;;1.83;0.90;;;11.50;99.90;;;;;;4916567;29;20994;-75
2021/05/17 01:34:40;;;;;;;1.40;0.80;;;11.40;99.90;;;;;;4921867;29;20468;-75
2021/05/17 01:37:08;;;;;;;2.27;0.90;;;11.50;99.90;;;;;;4954467;28;20522;-74
2021/05/17 01:39:36;;;;;;;1.90;1.80;;;11.50;99.90;;;;;;4961472;28;20475;-72
2021/05/17 01:42:06;;;;;;;2.40;0.60;;;11.50;99.90;;;;;;4938362;29;20543;-74
2021/05/17 01:44:37;;;;;;;1.90;0.60;;;11.50;99.90;;;;;;4937244;29;20464;-74
2021/05/17 01:47:04;;;;;;;1.10;0.73;;;11.50;99.90;;;;;;4938401;29;20464;-73
2021/05/17 01:49:33;;;;;;;1.10;0.70;;;11.40;99.90;;;;;;4937082;28;20487;-76
2021/05/17 01:52:00;;;;;;;2.10;0.57;;;11.40;99.90;;;;;;4955058;29;20491;-75
2021/05/17 01:54:31;;;;;;;1.23;0.60;;;11.30;99.90;;;;;;4953907;28;20571;-75
2021/05/17 01:56:58;;;;;;;5.47;0.83;;;11.30;99.90;;;;;;4954758;29;20582;-75
2021/05/17 01:59:34;;;;;;;0.70;0.70;;;11.30;99.90;;;;;;4934556;29;20475;-76
2021/05/17 02:02:02;;;;;;;3.33;0.70;;;11.30;99.90;;;;;;4954971;28;20977;-74
2021/05/17 02:04:32;;;;;;;0.70;0.60;;;11.30;99.90;;;;;;4935496;28;20483;-75
2021/05/17 02:06:59;;;;;;;1.50;0.70;;;11.20;99.90;;;;;;4918301;29;20508;-74
2021/05/17 02:09:31;;;;;;;0.90;0.77;;;11.30;99.90;;;;;;4917966;29;20484;-73
2021/05/17 02:12:00;;;;;;;3.83;1.00;;;11.30;99.90;;;;;;4935659;29;20544;-74
2021/05/17 02:14:54;;;;;;;1.50;0.90;;;11.30;99.90;;;;;;4952877;29;20974;-74
2021/05/17 02:17:25;;;;;;;4.57;1.30;;;11.30;99.90;;;;;;4952837;28;20498;-75
2021/05/17 02:19:53;;;;;;;2.03;0.70;;;11.20;99.90;;;;;;4947643;28;20447;-74
2021/05/17 02:22:21;;;;;;;2.43;1.00;;;11.20;99.90;;;;;;4949443;28;20439;-74
2021/05/17 02:24:59;;;;;;;1.10;0.80;;;11.10;99.90;;;;;;4953108;29;20450;-74
2021/05/17 02:27:27;;;;;;;5.88;0.90;;;11.10;99.90;;;;;;4952682;28;20459;-73
2021/05/17 02:29:54;;;;;;;1.10;0.90;;;11.10;99.90;;;;;;4954958;28;20185;-74
2021/05/17 02:32:24;;;;;;;1.40;1.30;;;11.10;99.90;;;;;;4952575;28;20474;-74
2021/05/17 02:34:54;;;;;;;3.60;1.10;;;11.20;99.90;;;;;;4950320;29;20432;-74
2021/05/17 02:37:21;;;;;;;1.15;0.80;;;11.10;99.90;;;;;;4952039;28;20206;-74
2021/05/17 02:39:51;;;;;;;2.25;0.80;;;11.10;99.90;;;;;;4949910;28;20184;-74
2021/05/17 02:42:26;;;;;;;1.20;0.90;;;11.20;99.90;;;;;;4957097;28;20206;-74
2021/05/17 02:44:53;;;;;;;4.43;0.93;;;11.10;99.90;;;;;;4937116;29;20271;-74
2021/05/17 02:47:20;;;;;;;1.83;1.20;;;11.10;99.90;;;;;;4952636;28;20750;-73
2021/05/17 02:49:49;;;;;;;3.30;1.00;;;11.20;99.90;;;;;;4948136;29;20203;-74
2021/05/17 02:52:17;;;;;;;1.80;1.20;;;11.20;99.90;;;;;;4968073;28;20568;-77
2021/05/17 02:55:12;;;;;;;7.73;1.57;;;11.20;99.90;;;;;;4954146;28;20938;-75
2021/05/17 02:57:50;;;;;;;3.20;1.20;;;11.20;99.90;;;;;;4955066;28;20834;-74
2021/05/17 03:00:21;;;;;;;3.00;1.63;;;11.10;99.90;;;;;;4956253;28;20368;-74
2021/05/17 03:03:06;;;;;;;2.20;1.10;;;11.20;99.90;;;;;;4934067;28;20461;-74
2021/05/17 03:05:42;;;;;;;2.30;1.17;;;11.10;99.90;;;;;;4962065;28;20891;-73
2021/05/17 03:08:17;;;;;;;2.13;1.67;;;11.20;99.90;;;;;;4947614;29;20853;-73
2021/05/17 03:10:45;;;;;;;2.15;1.10;;;11.20;99.90;;;;;;4936476;29;20447;-74
2021/05/17 03:13:19;;;;;;;1.43;1.10;;;11.20;99.90;;;;;;4940273;28;20320;-74
2021/05/17 03:15:47;;;;;;;1.92;1.23;;;11.20;99.90;;;;;;4935122;29;20583;-74
2021/05/17 03:18:15;;;;;;;2.80;1.33;;;11.20;99.90;;;;;;4959848;28;20285;-75
2021/05/17 03:20:42;;;;;;;1.37;1.23;;;11.20;99.90;;;;;;4971977;28;20449;-74
2021/05/17 03:23:12;;;;;;;2.70;1.00;;;11.30;99.90;;;;;;4971158;28;20474;-73
2021/05/17 03:25:43;;;;;;;2.73;1.30;;;11.30;99.90;;;;;;4968319;28;20441;-74
2021/05/17 03:28:10;;;;;;;1.00;0.90;;;11.30;99.90;;;;;;4954641;28;20471;-75
2021/05/17 03:30:37;;;;;;;2.72;1.27;;;11.30;99.90;;;;;;4955569;28;20183;-75
2021/05/17 03:33:04;;;;;;;3.23;1.47;;;11.30;99.90;;;;;;4939236;28;20310;-75
2021/05/17 03:35:31;;;;;;;1.87;1.50;;;11.40;99.90;;;;;;4950913;28;20442;-74
2021/05/17 03:38:03;;;;;;;4.63;1.95;;;11.30;99.90;;;;;;4968142;28;20474;-74
2021/05/17 03:40:30;;;;;;;3.37;1.70;;;11.30;99.90;;;;;;4954929;28;20195;-76
2021/05/17 03:42:56;;;;;;;2.30;1.13;;;11.30;99.90;;;;;;4938154;28;21019;-74
2021/05/17 03:45:23;;;;;;;3.00;1.20;;;11.30;99.90;;;;;;4936602;29;20553;-74
2021/05/17 03:47:50;;;;;;;3.10;1.17;;;11.30;99.90;;;;;;4951670;28;21024;-75
2021/05/17 03:50:17;;;;;;;1.90;0.97;;;11.30;99.90;;;;;;4953528;29;20436;-75
2021/05/17 03:52:44;;;;;;;3.90;1.40;;;11.30;99.90;;;;;;4952883;29;20967;-73
2021/05/17 03:55:11;;;;;;;2.40;1.37;;;11.30;99.90;;;;;;4952504;29;20545;-74
2021/05/17 03:57:38;;;;;;;2.00;1.37;;;11.40;99.90;;;;;;4935655;28;20491;-74
2021/05/17 04:00:09;;;;;;;4.73;1.70;;;11.40;99.90;;;;;;4936447;29;20440;-73
2021/05/17 04:02:41;;;;;;;2.17;1.00;;;11.40;99.90;;;;;;4952600;28;20451;-74
2021/05/17 04:13:25;;;;;;;1.13;0.93;;;11.30;99.90;;;;;;4946731;29;20908;-74
2021/05/17 04:15:55;;;;;;;4.13;1.20;;;11.30;99.90;;;;;;4907097;29;20444;-74
2021/05/17 04:18:22;;;;;;;2.60;1.03;;;11.40;99.90;;;;;;4941538;28;20910;-74
2021/05/17 04:20:51;;;;;;;2.63;1.00;;;11.40;99.90;;;;;;4935876;29;20427;-74
2021/05/17 04:23:23;;;;;;;1.87;0.80;;;11.40;99.90;;;;;;4935622;28;20468;-73
2021/05/17 04:25:51;;;;;;;1.20;1.10;;;11.40;99.90;;;;;;4963809;28;21044;-74
2021/05/17 04:28:19;;;;;;;3.30;1.20;;;11.40;99.90;;;;;;4945938;28;20484;-74
2021/05/17 04:30:46;;;;;;;2.40;1.60;;;11.40;99.90;;;;;;4936115;29;20530;-74
2021/05/17 04:33:13;;;;;;;2.93;1.10;;;11.40;99.90;;;;;;4955802;28;20536;-74
2021/05/17 04:35:40;;;;;;;3.00;1.53;;;11.40;99.90;;;;;;4938466;29;20435;-74
2021/05/17 04:38:07;;;;;;;4.37;1.53;;;11.40;99.90;;;;;;4955615;28;20471;-73
2021/05/17 04:40:34;;;;;;;1.07;0.87;;;11.50;99.90;;;;;;4956113;28;20471;-73
2021/05/17 04:43:01;;;;;;;2.87;1.47;;;11.40;99.90;;;;;;4955896;28;20459;-74
2021/05/17 04:45:28;;;;;;;3.70;0.87;;;11.50;99.90;;;;;;4939501;29;20475;-73
2021/05/17 04:47:55;;;;;;;3.93;1.00;;;11.40;99.90;;;;;;4930320;28;20537;-75
2021/05/17 04:50:23;;;;;;;2.13;1.50;;;11.40;99.90;;;;;;4930452;29;20432;-74
2021/05/17 04:52:50;;;;;;;2.60;1.00;;;11.50;99.90;;;;;;4939817;28;20542;-74
2021/05/17 04:55:17;;;;;;;3.20;1.30;;;11.40;99.90;;;;;;4955268;29;20482;-74
2021/05/17 04:57:44;;;;;;;2.40;1.10;;;11.50;99.90;;;;;;4938414;29;20467;-73
2021/05/17 05:00:11;;;;;;;1.33;1.03;;;11.40;99.90;;;;;;4939052;29;20432;-75
2021/05/17 05:02:39;;;;;;;3.60;1.07;;;11.50;99.90;;;;;;4962756;28;20865;-73
2021/05/17 05:05:08;;;;;;;4.97;1.20;;;11.50;99.90;;;;;;4903970;29;20508;-73
2021/05/17 05:07:35;;;;;;;3.07;1.30;;;11.60;99.90;;;;;;4919425;28;20460;-73
2021/05/17 05:10:04;;;;;;;3.03;1.10;;;11.60;99.90;;;;;;4925825;29;20449;-74
2021/05/17 05:12:31;;;;;;;2.60;1.20;;;11.60;99.90;;;;;;4936804;28;20428;-73
2021/05/17 05:14:58;;;;;;;3.03;0.90;;;11.60;99.90;;;;;;4935595;29;20452;-73
2021/05/17 05:17:25;;;;;;;1.90;0.90;;;11.70;99.90;;;;;;4935052;28;20456;-75
2021/05/17 05:19:52;;;;;;;2.50;1.30;;;11.70;99.90;;;;;;4935142;29;20453;-75
2021/05/17 05:22:19;;;;;;;3.27;1.20;;;11.80;99.90;;;;;;4936021;28;20484;-74
2021/05/17 05:24:47;;;;;;;4.70;1.20;;;11.80;99.90;;;;;;4928086;29;20453;-75
2021/05/17 05:29:52;;;;;;;6.63;2.73;;;11.90;99.90;;;;;;4934843;29;20480;-73
2021/05/17 05:32:24;;;;;;;3.60;1.40;;;12.00;99.90;;;;;;4941061;28;20535;-73
2021/05/17 05:34:51;;;;;;;2.53;1.10;;;12.00;99.90;;;;;;4935783;29;20530;-74
2021/05/17 05:37:21;;;;;;;3.13;1.10;;;12.10;99.90;;;;;;4935649;28;20471;-75
2021/05/17 05:39:48;;;;;;;2.70;1.10;;;12.10;99.90;;;;;;4935804;29;20914;-75
2021/05/17 05:42:15;;;;;;;1.20;1.00;;;12.20;99.90;;;;;;4918158;29;20445;-73
2021/05/17 05:44:47;;;;;;;2.97;1.27;;;12.20;99.90;;;;;;4934685;29;20502;-75
2021/05/17 05:47:16;;;;;;;3.33;1.27;;;12.10;99.90;;;;;;4935020;29;20556;-74
2021/05/17 05:49:48;;;;;;;3.90;0.80;;;12.10;99.90;;;;;;4933967;29;20585;-75
2021/05/17 05:52:17;;;;;;;2.87;0.80;;;12.20;99.90;;;;;;4935051;29;20483;-73
2021/05/17 05:54:45;;;;;;;4.33;1.10;;;12.20;99.90;;;;;;4935258;29;20465;-75
2021/05/17 05:57:14;;;;;;;3.33;1.67;;;12.20;99.90;;;;;;4935647;29;20452;-73
2021/05/17 05:59:42;;;;;;;9.40;1.33;;;12.20;99.90;;;;;;4934428;28;20468;-73
2021/05/17 06:02:09;;;;;;;2.57;1.00;;;12.20;99.90;;;;;;4934065;29;20488;-74
2021/05/17 06:04:39;;;;;;;1.53;0.80;;;12.20;99.90;;;;;;4934463;28;20508;-74
2021/05/17 06:07:09;;;;;;;1.97;1.73;;;12.20;99.90;;;;;;4934375;29;20460;-74
2021/05/17 06:09:36;;;;;;;2.50;0.87;;;12.20;99.90;;;;;;4932071;28;20483;-75
2021/05/17 06:12:06;;;;;;;3.73;1.30;;;12.20;99.90;;;;;;4934604;29;20435;-73
2021/05/17 06:14:33;;;;;;;2.80;1.20;;;12.30;99.90;;;;;;4935036;28;20468;-73
2021/05/17 06:17:00;;;;;;;2.40;1.20;;;12.40;99.90;;;;;;4934459;29;20503;-73
2021/05/17 06:19:28;;;;;;;2.37;1.13;;;12.50;99.90;;;;;;4949386;28;20468;-75
2021/05/17 06:21:56;;;;;;;5.90;1.10;;;12.50;99.90;;;;;;4935447;29;20453;-73
2021/05/17 06:24:23;;;;;;;4.10;0.83;;;12.50;99.90;;;;;;4929733;29;20477;-74
2021/05/17 06:26:51;;;;;;;1.70;0.80;;;12.50;99.90;;;;;;4934188;29;20503;-74
2021/05/17 06:29:18;;;;;;;1.00;0.73;;;12.60;99.90;;;;;;4949017;28;20461;-74
2021/05/17 06:31:48;;;;;;;2.20;0.80;;;12.70;99.90;;;;;;4931769;29;21150;-75
2021/05/17 06:34:15;;;;;;;1.80;1.00;;;12.70;99.90;;;;;;4932175;29;21019;-73
2021/05/17 06:36:42;;;;;;;3.00;1.00;;;12.70;99.90;;;;;;4933946;29;20492;-74
2021/05/17 06:39:12;;;;;;;1.60;0.97;;;12.70;99.90;;;;;;4933728;28;20475;-73
2021/05/17 06:41:39;;;;;;;2.00;1.30;;;12.70;99.90;;;;;;4933921;29;20484;-76
2021/05/17 06:44:07;;;;;;;8.00;1.20;;;12.80;99.90;;;;;;4927069;29;20491;-77
2021/05/17 06:46:36;;;;;;;1.63;1.00;;;12.80;99.90;;;;;;4934410;29;20846;-74
2021/05/17 06:49:03;;;;;;;2.77;1.23;;;12.80;99.90;;;;;;4932901;28;20479;-74
2021/05/17 06:51:30;;;;;;;2.47;1.07;;;12.80;99.90;;;;;;4933810;29;20447;-73
2021/05/17 06:54:00;;;;;;;2.83;1.17;;;12.70;99.90;;;;;;4932408;28;20583;-73
2021/05/17 06:56:41;;;;;;;2.10;1.30;;;12.80;99.90;;;;;;4934371;29;20832;-73
2021/05/17 06:59:17;;;;;;;2.70;1.30;;;12.80;99.90;;;;;;4932685;29;20464;-74
2021/05/17 07:01:44;;;;;;;2.80;1.37;;;12.80;99.90;;;;;;4933713;29;20527;-75
2021/05/17 07:04:15;;;;;;;1.57;0.90;;;12.80;99.90;;;;;;4934202;29;20907;-75
2021/05/17 07:06:51;;;;;;;1.87;1.03;;;12.80;99.90;;;;;;4934848;29;20456;-74
2021/05/17 07:12:11;;;;;;;4.17;1.00;;;12.70;99.90;;;;;;4934196;29;20806;-74
2021/05/17 07:14:38;;;;;;;3.23;0.70;;;12.80;99.90;;;;;;4926924;29;20480;-76
2021/05/17 07:17:06;;;;;;;2.27;0.90;;;12.80;99.90;;;;;;4932481;29;20471;-73
2021/05/17 07:19:34;;;;;;;6.83;1.00;;;12.80;99.90;;;;;;4933840;28;20563;-74
2021/05/17 07:24:48;;;;;;;2.40;1.17;;;13.00;99.90;;;;;;4952802;28;20534;-74
2021/05/17 07:27:15;;;;;;;2.40;1.40;;;13.00;99.90;;;;;;4936063;29;20499;-73
2021/05/17 07:29:42;;;;;;;6.67;1.70;;;13.10;99.90;;;;;;4942809;28;20497;-73
2021/05/17 07:32:10;;;;;;;4.43;1.30;;;13.20;99.90;;;;;;4935956;29;20432;-74
2021/05/17 07:34:39;;;;;;;2.40;1.23;;;13.40;99.90;;;;;;4951782;28;20495;-73
2021/05/17 07:37:07;;;;;;;3.30;1.40;;;13.40;99.90;;;;;;4936097;29;20546;-75
2021/05/17 07:39:34;;;;;;;3.30;1.40;;;13.50;99.90;;;;;;4919463;29;20478;-76
2021/05/17 07:42:05;;;;;;;3.20;1.30;;;13.50;99.90;;;;;;4935207;29;20482;-77
2021/05/17 07:44:32;;;;;;;4.37;1.20;;;13.40;99.90;;;;;;4952913;28;20486;-75
2021/05/17 07:47:02;;;;;;;2.30;1.00;;;13.40;99.90;;;;;;4935845;29;20870;-75
2021/05/17 07:49:40;;;;;;;2.80;1.10;;;13.40;99.90;;;;;;4934821;29;20491;-72
2021/05/17 07:52:07;;;;;;;4.03;0.73;;;13.30;99.90;;;;;;4936339;29;20499;-75
2021/05/17 07:54:36;;;;;;;4.60;1.03;;;13.30;99.90;;;;;;4931697;28;20468;-75
2021/05/17 07:57:06;;;;;;;2.43;0.80;;;13.30;99.90;;;;;;4932623;29;20525;-75
2021/05/17 07:59:34;;;;;;;4.13;0.70;;;13.30;99.90;;;;;;4918421;28;20468;-76
2021/05/17 08:02:02;;;;;;;1.63;0.80;;;13.30;99.90;;;;;;4901510;29;20440;-75
2021/05/17 08:04:29;;;;;;;3.80;0.90;;;13.20;99.90;;;;;;4910222;29;20464;-74
2021/05/17 08:06:57;;;;;;;2.30;0.80;;;13.30;99.90;;;;;;4920916;29;20463;-74
2021/05/17 08:09:25;;;;;;;1.23;0.73;;;13.20;99.90;;;;;;4948340;29;20482;-77
2021/05/17 08:11:54;;;;;;;3.70;1.43;;;13.20;99.90;;;;;;4957081;29;21027;-73
2021/05/17 08:14:21;;;;;;;1.73;0.83;;;13.10;99.90;;;;;;4922635;29;20487;-76
2021/05/17 08:16:48;;;;;;;4.10;1.43;;;13.00;99.90;;;;;;4920631;29;20539;-72
2021/05/17 08:19:18;;;;;;;1.43;1.00;;;12.90;99.90;;;;;;4951256;28;20484;-76
2021/05/17 08:21:45;;;;;;;1.37;0.87;;;12.90;99.90;;;;;;4939584;29;20992;-73
2021/05/17 08:24:12;;;;;;;1.80;0.70;;;12.90;99.90;;;;;;4938086;29;20486;-75
2021/05/17 08:26:41;;;;;;;3.17;1.00;;;12.80;99.90;;;;;;4940016;29;20503;-75
2021/05/17 08:29:08;;;;;;;1.30;1.20;;;12.90;99.90;;;;;;4939070;28;21061;-75
2021/05/17 08:31:37;;;;;;;0.97;0.80;;;12.80;99.90;;;;;;4939844;29;20475;-75
2021/05/17 08:34:05;;;;;;;2.60;1.40;;;12.90;99.90;;;;;;4954973;28;20482;-73
2021/05/17 08:36:32;;;;;;;2.27;1.30;;;12.90;99.90;;;;;;4956427;28;20567;-75
2021/05/17 08:39:01;;;;;;;2.20;1.10;;;12.90;99.90;;;;;;4937253;29;20510;-74
2021/05/17 08:41:29;;;;;;;1.47;1.00;;;12.80;99.90;;;;;;4939645;29;20854;-74
2021/05/17 08:43:56;;;;;;;1.93;1.60;;;12.80;99.90;;;;;;4956258;28;20471;-74
2021/05/17 08:46:23;;;;;;;2.47;1.10;;;13.00;99.90;;;;;;4947858;29;20460;-74
2021/05/17 08:48:51;;;;;;;2.97;1.00;;;13.40;99.90;;;;;;4935666;29;20865;-73
2021/05/17 08:51:29;;;;;;;1.57;1.10;;;13.60;99.90;;;;;;4938642;29;20447;-74
2021/05/17 08:54:02;;;;;;;2.70;1.40;;;14.00;99.90;;;;;;4951711;28;20481;-75
2021/05/17 08:56:30;;;;;;;4.03;0.80;;;14.20;99.90;;;;;;4938938;29;20485;-74
2021/05/17 08:59:02;;;;;;;3.60;1.30;;;14.50;99.90;;;;;;4941970;28;20915;-74
2021/05/17 09:01:30;;;;;;;2.80;1.87;;;14.70;99.90;;;;;;4954755;29;20543;-75
2021/05/17 09:04:10;;;;;;;3.93;1.33;;;14.90;99.90;;;;;;4952206;28;20481;-75
2021/05/17 09:06:38;;;;;;;1.30;0.73;;;15.10;99.90;;;;;;4955922;28;20980;-74
2021/05/17 09:09:25;;;;;;;3.50;1.30;;;15.10;99.90;;;;;;4947890;28;20471;-73
2021/05/17 09:12:15;;;;;;;3.47;1.60;;;15.20;99.90;;;;;;4949707;29;20438;-75
2021/05/17 09:14:42;;;;;;;6.77;1.87;;;15.40;99.90;;;;;;4947517;28;20480;-74
2021/05/17 09:17:10;;;;;;;5.13;1.37;;;15.50;99.90;;;;;;4951186;28;20462;-73
2021/05/17 09:19:41;;;;;;;2.20;1.17;;;15.50;99.90;;;;;;4947993;29;20508;-74
2021/05/17 09:22:15;;;;;;;3.87;1.30;;;15.40;99.90;;;;;;4938534;29;20450;-76
2021/05/17 09:24:46;;;;;;;1.53;1.43;;;15.20;99.90;;;;;;4930936;29;20503;-72
2021/05/17 09:27:25;;;;;;;3.10;1.10;;;15.10;99.90;;;;;;4954279;28;20459;-73
2021/05/17 09:29:55;;;;;;;1.67;1.00;;;15.10;99.90;;;;;;4956151;28;20532;-73
2021/05/17 09:32:26;;;;;;;3.47;1.10;;;15.30;99.90;;;;;;4944375;28;20934;-72
2021/05/17 09:35:07;;;;;;;2.60;1.10;;;15.50;99.90;;;;;;4952640;29;20566;-74
2021/05/17 09:37:56;;;;;;;5.40;1.33;;;15.50;99.00;;;;;;4954348;28;20886;-73
2021/05/17 09:40:29;;;;;;;2.57;0.93;;;15.60;98.30;;;;;;4963564;28;20506;-74
2021/05/17 09:43:07;;;;;;;1.77;0.83;;;15.70;98.60;;;;;;4932788;29;20503;-75
2021/05/17 09:45:46;;;;;;;3.03;0.93;;;16.00;97.10;;;;;;4939897;29;20441;-74
2021/05/17 09:48:14;;;;;;;1.67;0.60;;;16.20;97.00;;;;;;4945976;28;20472;-73
2021/05/17 09:51:08;;;;;;;3.10;0.90;;;16.20;93.80;;;;;;4937961;29;20756;-73
2021/05/17 09:53:38;;;;;;;4.07;0.80;;;;;;;;;;4941109;28;21005;-76
2021/05/17 09:56:22;;;;;;;0.80;0.60;;;16.40;93.90;;;;;;4940644;28;20533;-73
2021/05/17 09:59:00;;;;;;;3.83;1.37;;;16.40;93.90;;;;;;4921721;29;20551;-75
2021/05/17 10:01:28;;;;;;;2.70;1.33;;;16.10;95.00;;;;;;4926421;29;20441;-81
2021/05/17 10:04:05;;;;;;;3.33;1.20;;;15.50;99.90;;;;;;4921814;29;20511;-80
2021/05/17 10:06:32;;;;;;;1.53;0.83;;;14.90;99.90;;;;;;4935231;29;20546;-83
2021/05/17 10:09:00;;;;;;;1.40;1.10;;;14.40;99.90;;;;;;4933430;29;20514;-80
2021/05/17 10:11:33;;;;;;;1.07;0.87;;;14.20;99.90;;;;;;4938111;29;20440;-76
2021/05/17 10:14:03;;;;;;;2.23;0.90;;;14.10;99.90;;;;;;4921624;29;20473;-75
2021/05/17 10:16:35;;;;;;;8.70;1.20;;;14.10;99.90;;;;;;4955440;29;20484;-75
2021/05/17 10:19:02;;;;;;;1.77;1.07;;;14.30;99.90;;;;;;4936125;29;20468;-74
2021/05/17 10:21:29;;;;;;;1.30;1.13;;;14.40;99.90;;;;;;4956237;28;20468;-76
2021/05/17 10:23:57;;;;;;;1.97;0.87;;;14.50;99.90;;;;;;4935871;29;20491;-74
2021/05/17 10:26:25;;;;;;;1.60;1.23;;;14.40;99.90;;;;;;4940811;29;20457;-75
2021/05/17 10:28:58;;;;;;;1.47;0.90;;;14.30;99.90;;;;;;4943044;28;20460;-77
2021/05/17 10:31:26;;;;;;;1.20;1.10;;;14.30;99.90;;;;;;4954805;29;20435;-83
2021/05/17 10:34:07;;;;;;;2.10;0.97;;;14.30;99.90;;;;;;4929983;29;21007;-79
2021/05/17 10:36:58;;;;;;;1.43;0.80;;;14.30;99.90;;;;;;4962380;28;20532;-81
2021/05/17 10:39:33;;;;;;;1.30;0.80;;;14.10;99.90;;;;;;4965363;28;20484;-81
2021/05/17 10:47:49;;;;;;;1.83;0.93;;;13.80;99.90;;;;;;4921053;29;20465;-80
2021/05/17 10:50:21;;;;;;;2.07;0.90;;;13.70;99.90;;;;;;4928536;29;20437;-82
2021/05/17 10:52:48;;;;;;;1.47;0.87;;;13.60;99.90;;;;;;4908356;29;20863;-84
2021/05/17 10:55:16;;;;;;;2.30;0.80;;;13.50;99.90;;;;;;4912634;29;20490;-83
2021/05/17 10:57:57;;;;;;;4.83;1.73;;;13.40;99.90;;;;;;4920641;29;20475;-81
2021/05/17 11:00:26;;;;;;;3.17;0.97;;;13.30;99.90;;;;;;4936567;29;20490;-76
2021/05/17 11:03:15;;;;;;;3.03;0.93;;;13.20;99.90;;;;;;4952852;28;20464;-79
2021/05/17 11:05:45;;;;;;;2.20;1.00;;;13.20;99.90;;;;;;4950504;29;20436;-78
2021/05/17 11:08:16;;;;;;;0.80;0.60;;;13.20;99.90;;;;;;4935666;28;20484;-78
2021/05/17 11:10:49;;;;;;;3.70;1.77;;;13.20;99.90;;;;;;4929746;29;21003;-80
2021/05/17 11:13:21;;;;;;;1.93;1.20;;;13.30;99.90;;;;;;4936202;28;20475;-75
2021/05/17 11:15:48;;;;;;;1.13;0.70;;;13.40;99.90;;;;;;4953785;29;20503;-75
2021/05/17 11:18:15;;;;;;;1.00;0.90;;;13.50;99.90;;;;;;4965358;28;20518;-75
2021/05/17 11:20:49;;;;;;;1.30;0.63;;;13.50;99.90;;;;;;4953027;28;20432;-77
2021/05/17 11:23:31;;;;;;;0.97;0.77;;;13.60;99.90;;;;;;4938007;28;20998;-75
2021/05/17 11:28:34;;;;;;;1.27;0.80;;;13.80;99.90;;;;;;4916736;29;20468;-75
2021/05/17 11:31:28;;;;;;;1.40;0.80;;;14.00;99.90;;;;;;4917483;29;20823;-75
2021/05/17 11:33:58;;;;;;;1.87;0.87;;;14.10;99.90;;;;;;4914937;29;20500;-75
2021/05/17 11:36:27;;;;;;;2.30;1.20;;;14.10;99.90;;;;;;4901231;29;20531;-73
2021/05/17 11:39:30;;;;;;;1.60;0.90;;;14.20;99.90;;;;;;4908737;29;20473;-74
2021/05/17 11:41:58;;;;;;;2.80;1.00;;;14.30;99.90;;;;;;4916564;29;20462;-74
2021/05/17 11:47:27;;;;;;;3.33;1.20;;;14.30;99.90;;;;;;4916638;29;20479;-76
2021/05/17 11:49:56;;;;;;;1.80;0.90;;;14.40;99.90;;;;;;4967736;28;20471;-73
2021/05/17 11:52:28;;;;;;;2.07;0.80;;;14.60;99.90;;;;;;4924864;29;20435;-74
2021/05/17 11:55:00;;;;;;;1.77;0.80;;;14.70;99.90;;;;;;4926723;28;20540;-73
2021/05/17 11:57:36;;;;;;;1.67;0.77;;;14.80;99.90;;;;;;4934957;28;20501;-73
2021/05/17 12:00:16;;;;;;;2.77;1.00;;;14.80;99.90;;;;;;4920606;29;20464;-73
2021/05/17 12:02:53;;;;;;;1.60;0.70;;;14.70;99.90;;;;;;4952157;28;20507;-75
2021/05/17 12:05:22;;;;;;;2.93;1.10;;;14.50;99.90;;;;;;4936398;29;20466;-75
2021/05/17 12:07:57;;;;;;;1.70;1.00;;;14.30;99.90;;;;;;4942732;28;20971;-75
2021/05/17 12:10:34;;;;;;;4.63;1.70;;;14.10;99.90;;;;;;4943570;29;20458;-73
2021/05/17 12:13:11;;;;;;;2.40;1.10;;;14.00;99.90;;;;;;4929781;28;20887;-73
2021/05/17 12:15:39;;;;;;;2.07;0.83;;;13.90;99.90;;;;;;4931568;29;20485;-75
2021/05/17 12:18:10;;;;;;;3.90;2.03;;;14.00;99.90;;;;;;4922938;28;20512;-75
2021/05/17 12:20:37;;;;;;;2.87;2.00;;;14.10;99.90;;;;;;4932891;29;20500;-75
2021/05/17 12:23:04;;;;;;;3.90;1.93;;;14.20;99.90;;;;;;4919424;29;20535;-73
2021/05/17 12:25:35;;;;;;;1.60;1.23;;;14.20;99.90;;;;;;4931779;29;20460;-74
2021/05/17 12:28:03;;;;;;;2.50;1.80;;;14.10;99.90;;;;;;4947420;28;20985;-72
2021/05/17 12:30:31;;;;;;;5.63;1.90;;;14.10;99.90;;;;;;4932560;29;20439;-75
2021/05/17 12:33:01;;;;;;;2.70;1.50;;;14.00;99.90;;;;;;4914475;29;20469;-77
2021/05/17 12:35:39;;;;;;;1.93;1.83;;;14.00;99.90;;;;;;4916881;29;20465;-74
2021/05/17 12:38:14;;;;;;;2.17;2.00;;;13.90;99.90;;;;;;4931873;28;20480;-75
2021/05/17 12:40:48;;;;;;;2.70;2.50;;;13.90;99.90;;;;;;4931938;29;20448;-83
2021/05/17 12:43:20;;;;;;;5.63;2.30;;;14.00;99.90;;;;;;4914390;29;20484;-77
2021/05/17 12:45:48;;;;;;;3.70;2.20;;;13.90;99.90;;;;;;4946302;29;20927;-89
2021/05/17 12:48:39;;;;;;;3.50;2.40;;;13.90;99.90;;;;;;4925536;29;20468;-81
2021/05/17 12:51:22;;;;;;;4.50;2.63;;;13.80;99.90;;;;;;4931169;29;20448;-78
2021/05/17 12:53:52;;;;;;;6.60;2.50;;;13.80;99.90;;;;;;4932441;28;20495;-79
2021/05/17 12:56:34;;;;;;;2.77;2.40;;;13.80;99.90;;;;;;4920455;29;21062;-79
2021/05/17 12:59:11;;;;;;;3.13;2.00;;;13.80;99.90;;;;;;4936312;28;20482;-83
2021/05/17 13:01:39;;;;;;;3.90;2.60;;;13.70;99.90;;;;;;4949914;29;20448;-80
2021/05/17 13:04:07;;;;;;;3.20;2.30;;;13.60;99.90;;;;;;4935245;28;20521;-81
2021/05/17 13:06:35;;;;;;;4.97;3.03;;;13.60;99.90;;;;;;4936603;29;20486;-80
2021/05/17 13:09:06;;;;;;;2.77;2.53;;;13.60;99.90;;;;;;4935559;28;20472;-84
2021/05/17 13:11:38;;;;;;;4.27;2.67;;;13.50;99.90;;;;;;4939643;29;20919;-79
2021/05/17 13:14:13;;;;;;;5.67;3.43;;;13.30;99.90;;;;;;4935892;29;20528;-80
2021/05/17 13:16:48;;;;;;;4.77;3.47;;;13.20;99.90;;;;;;4935586;29;20485;-79
2021/05/17 13:30:58;;;;;;;5.07;3.67;;;13.10;99.90;;;;;;4925861;29;20815;-78
2021/05/17 13:33:50;;;;;;;3.90;3.50;;;13.20;99.90;;;;;;4935159;28;21076;-76
2021/05/17 13:36:19;;;;;;;3.90;3.07;;;13.20;99.90;;;;;;4910857;29;20822;-81
2021/05/17 13:38:51;;;;;;;3.30;2.87;;;13.20;99.90;;;;;;4953646;28;20570;-79
2021/05/17 13:41:20;;;;;;;4.10;3.27;;;13.30;99.90;;;;;;4929090;28;20446;-84
2021/05/17 13:43:52;;;;;;;5.10;3.13;;;13.30;99.90;;;;;;4959563;28;20844;-81
2021/05/17 13:46:19;;;;;;;7.60;3.37;;;13.40;99.90;;;;;;4957755;28;20470;-82